sensor_id;sensor_type;location;lat;lon;timestamp;pressure;altitude;pressure_sealevel;temperature;humidity
32298;BME280;18782;48.984;8.548;2023-08-24T00:00:31;100046.00;;;22.19;85.15
32298;BME280;18782;48.984;8.548;2023-08-24T00:03:00;100045.16;;;22.17;85.51
32298;BME280;18782;48.984;8.548;2023-08-24T00:05:30;100034.84;;;22.07;84.66
32298;BME280;18782;48.984;8.548;2023-08-24T00:07:59;100020.13;;;22.00;84.78
32298;BME280;18782;48.984;8.548;2023-08-24T00:10:29;100028.00;;;22.00;85.50
32298;BME280;18782;48.984;8.548;2023-08-24T00:12:56;100023.72;;;21.96;84.94
32298;BME280;18782;48.984;8.548;2023-08-24T00:15:24;100025.56;;;21.91;86.44
32298;BME280;18782;48.984;8.548;2023-08-24T00:17:52;100022.16;;;21.87;85.98
32298;BME280;18782;48.984;8.548;2023-08-24T00:20:20;100021.34;;;21.84;85.98
32298;BME280;18782;48.984;8.548;2023-08-24T00:22:48;100012.66;;;21.82;86.20
32298;BME280;18782;48.984;8.548;2023-08-24T00:25:16;100009.34;;;21.74;86.45
32298;BME280;18782;48.984;8.548;2023-08-24T00:27:46;100000.66;;;21.72;86.19
32298;BME280;18782;48.984;8.548;2023-08-24T00:30:14;99988.09;;;21.44;88.38
32298;BME280;18782;48.984;8.548;2023-08-24T00:32:44;99996.53;;;21.58;88.13
32298;BME280;18782;48.984;8.548;2023-08-24T00:35:12;100002.38;;;21.73;87.57
32298;BME280;18782;48.984;8.548;2023-08-24T00:37:39;100003.91;;;21.83;86.48
32298;BME280;18782;48.984;8.548;2023-08-24T00:40:08;99993.34;;;21.86;85.56
32298;BME280;18782;48.984;8.548;2023-08-24T00:42:37;99993.34;;;21.86;85.61
32298;BME280;18782;48.984;8.548;2023-08-24T00:45:09;99981.00;;;21.91;85.42
32298;BME280;18782;48.984;8.548;2023-08-24T00:47:37;99987.25;;;21.85;84.78
32298;BME280;18782;48.984;8.548;2023-08-24T00:50:07;99983.78;;;21.85;85.33
32298;BME280;18782;48.984;8.548;2023-08-24T00:52:37;99988.09;;;21.86;85.78
32298;BME280;18782;48.984;8.548;2023-08-24T00:55:06;99980.28;;;21.84;85.36
32298;BME280;18782;48.984;8.548;2023-08-24T00:57:35;99982.06;;;21.84;85.04
32298;BME280;18782;48.984;8.548;2023-08-24T01:00:05;99984.66;;;21.84;85.19
32298;BME280;18782;48.984;8.548;2023-08-24T01:02:38;99988.09;;;21.86;85.16
32298;BME280;18782;48.984;8.548;2023-08-24T01:05:06;99988.97;;;21.86;84.97
32298;BME280;18782;48.984;8.548;2023-08-24T01:07:37;99986.34;;;21.88;84.63
32298;BME280;18782;48.984;8.548;2023-08-24T01:10:08;99993.34;;;21.86;84.85
32298;BME280;18782;48.984;8.548;2023-08-24T01:12:48;99998.72;;;21.80;85.37
32298;BME280;18782;48.984;8.548;2023-08-24T01:15:22;100003.97;;;21.80;85.16
32298;BME280;18782;48.984;8.548;2023-08-24T01:17:55;100002.28;;;21.76;85.21
32298;BME280;18782;48.984;8.548;2023-08-24T01:20:28;100007.47;;;21.79;84.76
32298;BME280;18782;48.984;8.548;2023-08-24T01:23:07;100009.25;;;21.77;84.96
32298;BME280;18782;48.984;8.548;2023-08-24T01:25:42;100011.97;;;21.74;85.07
32298;BME280;18782;48.984;8.548;2023-08-24T01:28:15;100018.22;;;21.67;85.39
32298;BME280;18782;48.984;8.548;2023-08-24T01:30:44;100017.31;;;21.68;85.41
32298;BME280;18782;48.984;8.548;2023-08-24T01:33:11;100020.72;;;21.73;84.89
32298;BME280;18782;48.984;8.548;2023-08-24T01:35:40;100018.09;;;21.73;83.87
32298;BME280;18782;48.984;8.548;2023-08-24T01:38:08;100011.44;;;21.56;84.20
32298;BME280;18782;48.984;8.548;2023-08-24T01:40:48;100018.16;;;21.22;85.36
32298;BME280;18782;48.984;8.548;2023-08-24T01:43:25;100019.16;;;21.15;87.52
32298;BME280;18782;48.984;8.548;2023-08-24T01:46:11;100014.50;;;21.29;87.67
32298;BME280;18782;48.984;8.548;2023-08-24T01:48:42;100017.13;;;21.32;87.20
32298;BME280;18782;48.984;8.548;2023-08-24T01:51:11;100017.22;;;21.26;87.52
32298;BME280;18782;48.984;8.548;2023-08-24T01:58:06;99999.88;;;21.19;87.69
32298;BME280;18782;48.984;8.548;2023-08-24T02:00:35;99995.50;;;21.21;87.54
32298;BME280;18782;48.984;8.548;2023-08-24T02:03:04;99989.22;;;21.28;87.45
32298;BME280;18782;48.984;8.548;2023-08-24T02:05:32;99995.28;;;21.33;87.58
32298;BME280;18782;48.984;8.548;2023-08-24T02:08:00;100006.66;;;21.32;87.13
32298;BME280;18782;48.984;8.548;2023-08-24T02:10:27;99998.81;;;21.29;86.99
32298;BME280;18782;48.984;8.548;2023-08-24T02:25:03;99995.16;;;21.39;86.31
32298;BME280;18782;48.984;8.548;2023-08-24T02:27:31;99993.41;;;21.41;86.34
32298;BME280;18782;48.984;8.548;2023-08-24T02:29:59;99999.50;;;21.40;86.41
32298;BME280;18782;48.984;8.548;2023-08-24T02:32:28;99997.78;;;21.39;86.40
32298;BME280;18782;48.984;8.548;2023-08-24T02:34:56;100000.44;;;21.38;86.01
32298;BME280;18782;48.984;8.548;2023-08-24T02:37:24;99997.00;;;21.35;86.06
32298;BME280;18782;48.984;8.548;2023-08-24T02:39:54;99994.34;;;21.37;86.15
32298;BME280;18782;48.984;8.548;2023-08-24T02:42:23;99989.03;;;21.40;85.93
32298;BME280;18782;48.984;8.548;2023-08-24T02:44:51;99975.03;;;21.43;85.63
32298;BME280;18782;48.984;8.548;2023-08-24T02:47:20;99968.94;;;21.42;85.20
32298;BME280;18782;48.984;8.548;2023-08-24T02:49:48;99971.72;;;21.33;84.99
32298;BME280;18782;48.984;8.548;2023-08-24T02:52:15;99963.88;;;21.33;86.47
32298;BME280;18782;48.984;8.548;2023-08-24T02:54:43;99968.19;;;21.34;86.25
32298;BME280;18782;48.984;8.548;2023-08-24T02:57:10;99976.78;;;21.42;85.66
32298;BME280;18782;48.984;8.548;2023-08-24T02:59:40;99977.59;;;21.46;85.91
32298;BME280;18782;48.984;8.548;2023-08-24T03:02:10;99965.31;;;21.48;85.30
32298;BME280;18782;48.984;8.548;2023-08-24T03:04:37;99954.16;;;21.38;83.92
32298;BME280;18782;48.984;8.548;2023-08-24T03:07:05;99941.28;;;21.26;85.08
32298;BME280;18782;48.984;8.548;2023-08-24T03:09:34;99936.38;;;21.07;85.05
32298;BME280;18782;48.984;8.548;2023-08-24T03:12:03;99927.06;;;20.94;87.08
32298;BME280;18782;48.984;8.548;2023-08-24T03:14:31;99920.88;;;20.97;87.50
32298;BME280;18782;48.984;8.548;2023-08-24T03:17:00;99914.63;;;21.05;87.08
32298;BME280;18782;48.984;8.548;2023-08-24T03:19:30;99926.78;;;21.09;86.68
32298;BME280;18782;48.984;8.548;2023-08-24T03:21:58;99921.41;;;21.16;86.73
32298;BME280;18782;48.984;8.548;2023-08-24T03:24:26;99923.94;;;21.20;86.66
32298;BME280;18782;48.984;8.548;2023-08-24T03:26:53;99914.47;;;21.15;86.60
32298;BME280;18782;48.984;8.548;2023-08-24T03:29:21;99905.88;;;21.06;86.06
32298;BME280;18782;48.984;8.548;2023-08-24T03:31:49;99918.84;;;21.13;86.73
32298;BME280;18782;48.984;8.548;2023-08-24T03:34:18;99910.94;;;21.16;86.89
32298;BME280;18782;48.984;8.548;2023-08-24T03:36:47;99902.91;;;21.25;86.62
32298;BME280;18782;48.984;8.548;2023-08-24T03:39:15;99895.94;;;21.25;85.76
32298;BME280;18782;48.984;8.548;2023-08-24T03:41:43;99896.91;;;21.20;85.66
32298;BME280;18782;48.984;8.548;2023-08-24T03:44:11;99894.19;;;21.24;86.11
32298;BME280;18782;48.984;8.548;2023-08-24T03:46:38;99889.88;;;21.22;85.46
32298;BME280;18782;48.984;8.548;2023-08-24T03:49:06;99882.84;;;21.24;86.26
32298;BME280;18782;48.984;8.548;2023-08-24T03:51:35;99887.94;;;21.33;86.09
32298;BME280;18782;48.984;8.548;2023-08-24T03:54:04;99875.97;;;21.20;86.01
32298;BME280;18782;48.984;8.548;2023-08-24T03:56:32;99871.56;;;21.22;86.10
32298;BME280;18782;48.984;8.548;2023-08-24T03:59:00;99868.88;;;21.25;86.00
32298;BME280;18782;48.984;8.548;2023-08-24T04:01:28;99872.44;;;21.21;85.09
32298;BME280;18782;48.984;8.548;2023-08-24T04:03:55;99875.88;;;21.23;85.89
32298;BME280;18782;48.984;8.548;2023-08-24T04:06:27;99863.66;;;21.25;85.57
32298;BME280;18782;48.984;8.548;2023-08-24T04:08:56;99867.13;;;21.24;84.76
32298;BME280;18782;48.984;8.548;2023-08-24T04:11:24;99865.50;;;21.20;84.59
32298;BME280;18782;48.984;8.548;2023-08-24T04:13:51;99872.63;;;21.11;84.29
32298;BME280;18782;48.984;8.548;2023-08-24T04:16:19;99875.22;;;21.13;84.69
32298;BME280;18782;48.984;8.548;2023-08-24T04:18:47;99878.75;;;21.10;84.61
32298;BME280;18782;48.984;8.548;2023-08-24T04:21:15;99881.38;;;21.10;86.96
32298;BME280;18782;48.984;8.548;2023-08-24T04:23:42;99877.91;;;21.08;85.06
32298;BME280;18782;48.984;8.548;2023-08-24T04:26:12;99880.66;;;21.04;85.89
32298;BME280;18782;48.984;8.548;2023-08-24T04:28:40;99877.91;;;21.08;87.91
32298;BME280;18782;48.984;8.548;2023-08-24T04:31:08;99877.06;;;21.08;87.24
32298;BME280;18782;48.984;8.548;2023-08-24T04:33:35;99872.63;;;21.11;86.45
32298;BME280;18782;48.984;8.548;2023-08-24T04:36:04;99877.88;;;21.11;85.76
32298;BME280;18782;48.984;8.548;2023-08-24T04:38:32;99867.34;;;21.15;85.66
32298;BME280;18782;48.984;8.548;2023-08-24T04:41:00;99874.16;;;21.22;86.14
32298;BME280;18782;48.984;8.548;2023-08-24T04:43:29;99865.50;;;21.20;84.98
32298;BME280;18782;48.984;8.548;2023-08-24T04:45:57;99862.06;;;21.16;85.03
32298;BME280;18782;48.984;8.548;2023-08-24T04:48:25;99856.78;;;21.18;84.59
32298;BME280;18782;48.984;8.548;2023-08-24T04:50:53;99855.09;;;21.17;83.87
32298;BME280;18782;48.984;8.548;2023-08-24T04:53:22;99853.44;;;21.11;82.98
32298;BME280;18782;48.984;8.548;2023-08-24T04:55:51;99845.63;;;21.09;80.80
32298;BME280;18782;48.984;8.548;2023-08-24T04:58:18;99840.56;;;21.00;81.09
32298;BME280;18782;48.984;8.548;2023-08-24T05:00:48;99841.47;;;20.99;80.75
32298;BME280;18782;48.984;8.548;2023-08-24T05:03:16;99837.97;;;21.00;80.33
32298;BME280;18782;48.984;8.548;2023-08-24T05:05:47;99831.06;;;20.96;81.12
32298;BME280;18782;48.984;8.548;2023-08-24T05:08:15;99825.78;;;20.98;80.82
32298;BME280;18782;48.984;8.548;2023-08-24T05:10:43;99825.19;;;20.85;81.87
32298;BME280;18782;48.984;8.548;2023-08-24T05:13:11;99827.84;;;20.82;82.19
32298;BME280;18782;48.984;8.548;2023-08-24T05:15:39;99829.50;;;20.86;83.29
32298;BME280;18782;48.984;8.548;2023-08-24T05:18:08;99832.84;;;20.94;82.77
32298;BME280;18782;48.984;8.548;2023-08-24T05:20:36;99821.28;;;21.06;82.84
32298;BME280;18782;48.984;8.548;2023-08-24T05:23:03;99831.25;;;21.29;82.84
32298;BME280;18782;48.984;8.548;2023-08-24T05:25:31;99840.53;;;21.45;82.74
32298;BME280;18782;48.984;8.548;2023-08-24T05:28:00;99850.75;;;21.57;82.54
32298;BME280;18782;48.984;8.548;2023-08-24T05:30:29;99867.84;;;21.74;82.14
32298;BME280;18782;48.984;8.548;2023-08-24T05:32:57;99856.03;;;21.95;81.29
32298;BME280;18782;48.984;8.548;2023-08-24T05:35:26;99853.16;;;22.05;81.57
32298;BME280;18782;48.984;8.548;2023-08-24T05:37:54;99855.72;;;22.08;80.85
32298;BME280;18782;48.984;8.548;2023-08-24T05:40:22;99851.25;;;22.13;80.52
32298;BME280;18782;48.984;8.548;2023-08-24T05:42:49;99864.91;;;22.26;80.05
32298;BME280;18782;48.984;8.548;2023-08-24T05:45:17;99862.00;;;22.37;80.02
32298;BME280;18782;48.984;8.548;2023-08-24T05:47:45;99855.56;;;22.50;80.76
32298;BME280;18782;48.984;8.548;2023-08-24T05:50:13;99866.81;;;22.55;79.83
32298;BME280;18782;48.984;8.548;2023-08-24T05:52:42;99871.22;;;22.53;79.83
32298;BME280;18782;48.984;8.548;2023-08-24T05:55:09;99878.19;;;22.54;80.21
32298;BME280;18782;48.984;8.548;2023-08-24T05:57:37;99895.72;;;22.52;79.50
32298;BME280;18782;48.984;8.548;2023-08-24T06:00:06;99907.25;;;22.47;77.62
32298;BME280;18782;48.984;8.548;2023-08-24T06:02:40;99916.19;;;22.38;77.20
32298;BME280;18782;48.984;8.548;2023-08-24T06:05:08;99928.00;;;22.54;79.32
32298;BME280;18782;48.984;8.548;2023-08-24T06:07:37;99944.22;;;22.72;77.82
32298;BME280;18782;48.984;8.548;2023-08-24T06:10:07;99955.69;;;22.67;77.80
32298;BME280;18782;48.984;8.548;2023-08-24T06:12:35;99958.09;;;22.77;76.59
32298;BME280;18782;48.984;8.548;2023-08-24T06:15:04;99976.63;;;22.69;77.27
32298;BME280;18782;48.984;8.548;2023-08-24T06:17:34;99980.22;;;22.65;77.03
32298;BME280;18782;48.984;8.548;2023-08-24T06:20:02;99983.63;;;22.69;76.46
32298;BME280;18782;48.984;8.548;2023-08-24T06:22:31;99968.66;;;22.74;75.27
32298;BME280;18782;48.984;8.548;2023-08-24T06:24:58;99956.50;;;22.70;74.58
32298;BME280;18782;48.984;8.548;2023-08-24T06:27:27;99940.75;;;22.70;75.13
32298;BME280;18782;48.984;8.548;2023-08-24T06:29:55;99924.94;;;22.73;75.30
32298;BME280;18782;48.984;8.548;2023-08-24T06:32:23;99931.09;;;22.72;73.95
32298;BME280;18782;48.984;8.548;2023-08-24T06:34:51;99950.44;;;22.67;73.50
32298;BME280;18782;48.984;8.548;2023-08-24T06:37:19;99950.59;;;22.61;74.76
32298;BME280;18782;48.984;8.548;2023-08-24T06:39:46;99940.69;;;22.73;75.47
32298;BME280;18782;48.984;8.548;2023-08-24T06:42:14;99930.94;;;22.78;74.98
32298;BME280;18782;48.984;8.548;2023-08-24T06:44:43;99916.00;;;22.80;74.06
32298;BME280;18782;48.984;8.548;2023-08-24T06:47:10;99924.09;;;22.71;72.84
32298;BME280;18782;48.984;8.548;2023-08-24T06:49:38;99935.59;;;22.66;73.33
32298;BME280;18782;48.984;8.548;2023-08-24T06:52:06;99942.56;;;22.67;72.98
32298;BME280;18782;48.984;8.548;2023-08-24T06:54:34;99954.13;;;22.60;71.93
32298;BME280;18782;48.984;8.548;2023-08-24T06:57:02;99942.88;;;22.55;71.73
32298;BME280;18782;48.984;8.548;2023-08-24T06:59:30;99941.06;;;22.57;72.27
32298;BME280;18782;48.984;8.548;2023-08-24T07:01:59;99925.38;;;22.54;73.52
32298;BME280;18782;48.984;8.548;2023-08-24T07:04:27;99931.22;;;22.67;72.11
32298;BME280;18782;48.984;8.548;2023-08-24T07:06:56;99925.97;;;22.67;72.94
32298;BME280;18782;48.984;8.548;2023-08-24T07:09:24;99931.16;;;22.69;71.81
32298;BME280;18782;48.984;8.548;2023-08-24T07:11:51;99928.75;;;22.59;71.00
32298;BME280;18782;48.984;8.548;2023-08-24T07:14:19;99925.38;;;22.54;71.93
32298;BME280;18782;48.984;8.548;2023-08-24T07:16:47;99922.63;;;22.60;72.38
32298;BME280;18782;48.984;8.548;2023-08-24T07:19:16;99922.38;;;22.70;71.74
32298;BME280;18782;48.984;8.548;2023-08-24T07:21:44;99910.06;;;22.73;71.72
32298;BME280;18782;48.984;8.548;2023-08-24T07:24:12;99912.28;;;22.90;72.46
32298;BME280;18782;48.984;8.548;2023-08-24T07:26:40;99908.72;;;22.91;70.45
32298;BME280;18782;48.984;8.548;2023-08-24T07:29:08;99919.09;;;22.97;70.80
32298;BME280;18782;48.984;8.548;2023-08-24T07:31:37;99922.34;;;23.05;70.83
32298;BME280;18782;48.984;8.548;2023-08-24T07:34:05;99913.41;;;23.12;70.79
32298;BME280;18782;48.984;8.548;2023-08-24T07:36:34;99916.06;;;23.11;68.65
32298;BME280;18782;48.984;8.548;2023-08-24T07:39:02;99915.28;;;23.07;69.36
32298;BME280;18782;48.984;8.548;2023-08-24T07:41:29;99908.06;;;23.15;68.67
32298;BME280;18782;48.984;8.548;2023-08-24T07:43:57;99911.63;;;23.14;68.74
32298;BME280;18782;48.984;8.548;2023-08-24T07:46:25;99907.84;;;23.25;68.81
32298;BME280;18782;48.984;8.548;2023-08-24T07:48:52;99903.84;;;23.41;69.31
32298;BME280;18782;48.984;8.548;2023-08-24T07:51:20;99900.78;;;23.56;69.51
32298;BME280;18782;48.984;8.548;2023-08-24T07:53:49;99898.69;;;23.69;68.53
32298;BME280;18782;48.984;8.548;2023-08-24T07:56:18;99906.53;;;23.71;66.79
32298;BME280;18782;48.984;8.548;2023-08-24T07:58:46;99911.63;;;23.75;66.53
32298;BME280;18782;48.984;8.548;2023-08-24T08:01:13;99912.41;;;23.79;66.53
32298;BME280;18782;48.984;8.548;2023-08-24T08:03:41;99918.31;;;23.87;67.58
32298;BME280;18782;48.984;8.548;2023-08-24T08:06:09;99924.88;;;24.00;67.09
32298;BME280;18782;48.984;8.548;2023-08-24T08:08:37;99920.78;;;24.19;67.23
32298;BME280;18782;48.984;8.548;2023-08-24T08:11:06;99914.84;;;24.41;65.69
32298;BME280;18782;48.984;8.548;2023-08-24T08:13:33;99923.25;;;24.52;66.01
32298;BME280;18782;48.984;8.548;2023-08-24T08:16:01;99918.53;;;24.62;66.03
32298;BME280;18782;48.984;8.548;2023-08-24T08:18:30;99921.72;;;24.71;65.08
32298;BME280;18782;48.984;8.548;2023-08-24T08:20:58;99920.50;;;24.82;64.91
32298;BME280;18782;48.984;8.548;2023-08-24T08:23:26;99920.38;;;24.85;64.18
32298;BME280;18782;48.984;8.548;2023-08-24T08:25:54;99913.00;;;24.96;64.00
32298;BME280;18782;48.984;8.548;2023-08-24T08:28:23;99915.28;;;25.05;63.24
32298;BME280;18782;48.984;8.548;2023-08-24T08:30:50;99916.72;;;25.15;63.53
32298;BME280;18782;48.984;8.548;2023-08-24T08:33:18;99908.38;;;25.28;63.80
32298;BME280;18782;48.984;8.548;2023-08-24T08:35:48;99909.25;;;25.28;63.04
32298;BME280;18782;48.984;8.548;2023-08-24T08:38:16;99906.31;;;25.36;62.82
32298;BME280;18782;48.984;8.548;2023-08-24T08:40:45;99908.38;;;25.51;63.68
32298;BME280;18782;48.984;8.548;2023-08-24T08:43:13;99907.25;;;25.58;63.95
32298;BME280;18782;48.984;8.548;2023-08-24T08:45:42;99902.59;;;25.65;63.15
32298;BME280;18782;48.984;8.548;2023-08-24T08:48:11;99898.41;;;25.83;62.43
32298;BME280;18782;48.984;8.548;2023-08-24T08:50:39;99888.53;;;25.88;62.09
32298;BME280;18782;48.984;8.548;2023-08-24T08:53:07;99889.09;;;25.96;62.92
32298;BME280;18782;48.984;8.548;2023-08-24T08:55:35;99886.91;;;26.07;63.25
32298;BME280;18782;48.984;8.548;2023-08-24T08:58:03;99874.91;;;26.20;61.42
32298;BME280;18782;48.984;8.548;2023-08-24T09:00:31;99861.09;;;26.36;61.71
32298;BME280;18782;48.984;8.548;2023-08-24T09:03:01;99860.88;;;26.42;62.14
32298;BME280;18782;48.984;8.548;2023-08-24T09:05:31;99839.78;;;26.42;60.06
32298;BME280;18782;48.984;8.548;2023-08-24T09:07:59;99838.69;;;26.46;60.60
32298;BME280;18782;48.984;8.548;2023-08-24T09:10:29;99831.63;;;26.67;60.70
32298;BME280;18782;48.984;8.548;2023-08-24T09:12:57;99817.66;;;26.65;60.42
32298;BME280;18782;48.984;8.548;2023-08-24T09:15:25;99823.50;;;26.71;61.00
32298;BME280;18782;48.984;8.548;2023-08-24T09:17:54;99814.34;;;26.80;60.95
32298;BME280;18782;48.984;8.548;2023-08-24T09:20:27;99821.66;;;26.94;61.00
32298;BME280;18782;48.984;8.548;2023-08-24T09:22:55;99818.44;;;27.06;58.53
32298;BME280;18782;48.984;8.548;2023-08-24T09:25:23;99818.19;;;27.12;58.86
32298;BME280;18782;48.984;8.548;2023-08-24T09:27:58;99803.34;;;27.28;60.31
32298;BME280;18782;48.984;8.548;2023-08-24T09:30:29;99790.19;;;27.46;59.59
32298;BME280;18782;48.984;8.548;2023-08-24T09:33:02;99773.75;;;27.58;59.63
32298;BME280;18782;48.984;8.548;2023-08-24T09:35:35;99780.31;;;27.68;59.76
32298;BME280;18782;48.984;8.548;2023-08-24T09:38:16;99766.59;;;27.79;57.98
32298;BME280;18782;48.984;8.548;2023-08-24T09:40:45;99758.66;;;27.96;56.57
32298;BME280;18782;48.984;8.548;2023-08-24T09:43:14;99748.03;;;28.15;57.40
32298;BME280;18782;48.984;8.548;2023-08-24T09:45:49;99747.69;;;28.21;57.33
32298;BME280;18782;48.984;8.548;2023-08-24T09:48:17;99739.53;;;28.43;57.40
32298;BME280;18782;48.984;8.548;2023-08-24T09:50:50;99742.75;;;28.66;58.13
32298;BME280;18782;48.984;8.548;2023-08-24T09:53:18;99736.44;;;28.68;54.44
32298;BME280;18782;48.984;8.548;2023-08-24T09:55:52;99733.13;;;28.80;54.18
32298;BME280;18782;48.984;8.548;2023-08-24T09:58:21;99731.56;;;28.94;52.11
32298;BME280;18782;48.984;8.548;2023-08-24T10:00:49;99718.72;;;29.02;53.19
32298;BME280;18782;48.984;8.548;2023-08-24T10:03:19;99710.72;;;29.19;52.44
32298;BME280;18782;48.984;8.548;2023-08-24T10:05:50;99712.31;;;29.37;53.13
32298;BME280;18782;48.984;8.548;2023-08-24T10:08:27;99712.66;;;29.47;51.04
32298;BME280;18782;48.984;8.548;2023-08-24T10:10:56;99696.38;;;29.69;52.24
32298;BME280;18782;48.984;8.548;2023-08-24T10:13:31;99703.06;;;29.90;49.82
32298;BME280;18782;48.984;8.548;2023-08-24T10:16:03;99708.31;;;29.92;49.18
32298;BME280;18782;48.984;8.548;2023-08-24T10:18:32;99702.72;;;30.11;51.05
32298;BME280;18782;48.984;8.548;2023-08-24T10:21:02;99687.41;;;30.16;49.69
32298;BME280;18782;48.984;8.548;2023-08-24T10:23:30;99689.91;;;30.33;49.79
32298;BME280;18782;48.984;8.548;2023-08-24T10:26:04;99677.41;;;30.50;48.45
32298;BME280;18782;48.984;8.548;2023-08-24T10:28:44;99681.19;;;30.60;49.28
32298;BME280;18782;48.984;8.548;2023-08-24T10:31:13;99665.25;;;30.74;48.59
32298;BME280;18782;48.984;8.548;2023-08-24T10:33:41;99662.50;;;30.76;49.24
32298;BME280;18782;48.984;8.548;2023-08-24T10:36:12;99659.06;;;30.88;49.92
32298;BME280;18782;48.984;8.548;2023-08-24T10:38:41;99657.41;;;31.00;49.80
32298;BME280;18782;48.984;8.548;2023-08-24T10:41:10;99651.22;;;31.13;48.78
32298;BME280;18782;48.984;8.548;2023-08-24T10:43:41;99635.31;;;31.26;48.31
32298;BME280;18782;48.984;8.548;2023-08-24T10:46:15;99636.72;;;31.32;48.30
32298;BME280;18782;48.984;8.548;2023-08-24T10:48:59;99631.88;;;31.24;47.35
32298;BME280;18782;48.984;8.548;2023-08-24T10:51:29;99630.53;;;31.31;47.88
32298;BME280;18782;48.984;8.548;2023-08-24T10:53:59;99624.00;;;31.50;46.74
32298;BME280;18782;48.984;8.548;2023-08-24T10:56:36;99622.09;;;31.52;47.66
32298;BME280;18782;48.984;8.548;2023-08-24T10:59:12;99617.66;;;31.65;47.03
32298;BME280;18782;48.984;8.548;2023-08-24T11:01:41;99613.75;;;31.83;46.83
32298;BME280;18782;48.984;8.548;2023-08-24T11:04:10;99614.84;;;32.06;45.87
32298;BME280;18782;48.984;8.548;2023-08-24T11:06:58;99611.34;;;32.06;45.26
32298;BME280;18782;48.984;8.548;2023-08-24T11:09:44;99623.25;;;32.38;46.99
32298;BME280;18782;48.984;8.548;2023-08-24T11:12:13;99610.47;;;32.43;45.27
32298;BME280;18782;48.984;8.548;2023-08-24T11:14:48;99609.75;;;32.65;45.24
32298;BME280;18782;48.984;8.548;2023-08-24T11:17:19;99605.22;;;32.91;45.85
32298;BME280;18782;48.984;8.548;2023-08-24T11:19:48;99589.78;;;33.08;44.46
32298;BME280;18782;48.984;8.548;2023-08-24T11:22:18;99596.47;;;33.37;44.74
32298;BME280;18782;48.984;8.548;2023-08-24T11:24:46;99587.03;;;33.44;43.46
32298;BME280;18782;48.984;8.548;2023-08-24T11:27:13;99580.91;;;33.66;43.67
32298;BME280;18782;48.984;8.548;2023-08-24T11:29:42;99579.84;;;33.91;41.87
32298;BME280;18782;48.984;8.548;2023-08-24T11:32:10;99572.38;;;34.19;43.15
32298;BME280;18782;48.984;8.548;2023-08-24T11:34:38;99579.63;;;34.39;42.62
32298;BME280;18782;48.984;8.548;2023-08-24T11:37:06;99588.63;;;34.61;42.11
32298;BME280;18782;48.984;8.548;2023-08-24T11:39:35;99575.94;;;34.85;41.51
32298;BME280;18782;48.984;8.548;2023-08-24T11:42:05;99563.44;;;35.18;40.19
32298;BME280;18782;48.984;8.548;2023-08-24T11:44:44;99570.63;;;35.38;41.05
32298;BME280;18782;48.984;8.548;2023-08-24T11:47:13;99562.97;;;35.66;39.23
32298;BME280;18782;48.984;8.548;2023-08-24T11:49:41;99557.78;;;35.74;38.95
32298;BME280;18782;48.984;8.548;2023-08-24T11:52:09;99558.09;;;35.80;39.42
32298;BME280;18782;48.984;8.548;2023-08-24T11:54:38;99555.69;;;35.98;38.13
32298;BME280;18782;48.984;8.548;2023-08-24T11:57:05;99556.19;;;36.23;38.22
32298;BME280;18782;48.984;8.548;2023-08-24T11:59:34;99561.72;;;36.31;39.22
32298;BME280;18782;48.984;8.548;2023-08-24T12:02:03;99557.03;;;36.44;38.04
32298;BME280;18782;48.984;8.548;2023-08-24T12:04:38;99539.84;;;36.66;36.71
32298;BME280;18782;48.984;8.548;2023-08-24T12:07:09;99530.84;;;37.16;36.26
32298;BME280;18782;48.984;8.548;2023-08-24T12:09:38;99523.69;;;37.63;35.68
32298;BME280;18782;48.984;8.548;2023-08-24T12:12:12;99522.34;;;37.49;35.99
32298;BME280;18782;48.984;8.548;2023-08-24T12:14:40;99503.38;;;37.60;37.13
32298;BME280;18782;48.984;8.548;2023-08-24T12:17:08;99500.44;;;37.34;36.80
32298;BME280;18782;48.984;8.548;2023-08-24T12:19:36;99495.50;;;37.49;36.60
32298;BME280;18782;48.984;8.548;2023-08-24T12:22:06;99495.59;;;37.57;36.49
32298;BME280;18782;48.984;8.548;2023-08-24T12:24:33;99487.72;;;37.93;35.65
32298;BME280;18782;48.984;8.548;2023-08-24T12:27:03;99472.56;;;38.20;34.42
32298;BME280;18782;48.984;8.548;2023-08-24T12:29:31;99484.06;;;38.85;34.93
32298;BME280;18782;48.984;8.548;2023-08-24T12:31:58;99469.41;;;39.05;34.47
32298;BME280;18782;48.984;8.548;2023-08-24T12:34:26;99464.03;;;39.05;33.18
32298;BME280;18782;48.984;8.548;2023-08-24T12:36:54;99463.41;;;39.11;32.92
32298;BME280;18782;48.984;8.548;2023-08-24T12:39:21;99462.25;;;39.40;33.54
32298;BME280;18782;48.984;8.548;2023-08-24T12:41:49;99449.22;;;39.53;33.94
32298;BME280;18782;48.984;8.548;2023-08-24T12:44:18;99453.16;;;39.41;33.53
32298;BME280;18782;48.984;8.548;2023-08-24T12:46:46;99447.38;;;39.28;34.41
32298;BME280;18782;48.984;8.548;2023-08-24T12:49:13;99445.94;;;39.41;33.12
32298;BME280;18782;48.984;8.548;2023-08-24T12:51:41;99443.25;;;39.67;33.38
32298;BME280;18782;48.984;8.548;2023-08-24T12:54:09;99450.84;;;39.72;33.81
32298;BME280;18782;48.984;8.548;2023-08-24T12:56:38;99440.28;;;39.79;33.50
32298;BME280;18782;48.984;8.548;2023-08-24T12:59:06;99437.72;;;40.20;33.02
32298;BME280;18782;48.984;8.548;2023-08-24T13:01:35;99427.69;;;40.54;32.89
32298;BME280;18782;48.984;8.548;2023-08-24T13:04:03;99420.09;;;41.15;30.36
32298;BME280;18782;48.984;8.548;2023-08-24T13:06:32;99423.63;;;41.87;30.23
32298;BME280;18782;48.984;8.548;2023-08-24T13:09:00;99419.38;;;42.47;30.13
32298;BME280;18782;48.984;8.548;2023-08-24T13:11:27;99410.59;;;42.68;29.63
32298;BME280;18782;48.984;8.548;2023-08-24T13:13:55;99403.63;;;43.85;28.64
32298;BME280;18782;48.984;8.548;2023-08-24T13:16:23;99404.22;;;44.81;27.48
32298;BME280;18782;48.984;8.548;2023-08-24T13:18:52;99408.53;;;45.66;26.45
32298;BME280;18782;48.984;8.548;2023-08-24T13:21:19;99393.56;;;45.84;25.08
32298;BME280;18782;48.984;8.548;2023-08-24T13:23:47;99404.63;;;47.10;23.56
32298;BME280;18782;48.984;8.548;2023-08-24T13:26:18;99390.13;;;47.87;22.53